Time;durP1;ratioP1;P1;durP2;ratioP2;P2;SDS_P1;SDS_P2;PMS_P1;PMS_P2;Temp;Humidity;BMP_temperature;BMP_pressure;BME280_temperature;BME280_humidity;BME280_pressure;Samples;Min_cycle;Max_cycle;Signal;HPM_P1;HPM_P2
2022/05/07 00:00:22;;;;;;;12.75;3.27;;;;;;;11.40;40.68;100345.89;1764349;81;21108;-72
2022/05/07 00:02:49;;;;;;;8.53;2.92;;;;;;;11.42;40.56;100344.20;1769652;80;20967;-73
2022/05/07 00:05:15;;;;;;;6.75;3.45;;;;;;;11.40;40.54;100343.68;1769835;81;20982;-69
2022/05/07 00:07:42;;;;;;;7.10;3.58;;;;;;;11.39;40.61;100344.27;1769750;81;21013;-69
2022/05/07 00:10:20;;;;;;;9.03;3.60;;;;;;;11.43;40.44;100349.41;1768886;79;21408;-69
2022/05/07 00:12:48;;;;;;;6.58;3.33;;;;;;;11.42;40.58;100345.03;1752240;81;20912;-75
2022/05/07 00:15:15;;;;;;;10.08;3.55;;;;;;;11.42;40.38;100350.55;1752672;81;21502;-72
2022/05/07 00:18:27;;;;;;;6.33;3.33;;;;;;;11.36;40.50;100344.85;1752152;81;21615;-72
2022/05/07 00:20:11;;;;;;;6.97;3.10;;;;;;;11.32;40.77;100341.91;1732200;80;22026;-71
2022/05/07 00:22:37;;;;;;;7.80;3.45;;;;;;;11.33;40.96;100342.70;1816489;79;20960;-70
2022/05/07 00:25:07;;;;;;;8.78;3.83;;;;;;;11.34;41.00;100338.02;1816009;79;20893;-73
2022/05/07 00:27:36;;;;;;;16.70;3.60;;;;;;;11.31;41.12;100335.32;1818624;78;21875;-74
2022/05/07 00:30:29;;;;;;;5.45;3.00;;;;;;;11.33;40.89;100335.81;1822779;78;20989;-73
2022/05/07 00:33:01;;;;;;;8.23;3.47;;;;;;;11.28;40.81;100337.28;1819726;78;20956;-65
2022/05/07 00:35:28;;;;;;;5.55;3.22;;;;;;;11.25;41.08;100331.83;1810885;79;20981;-69
2022/05/07 00:40:43;;;;;;;10.38;3.50;;;;;;;11.16;41.46;100332.27;1804333;79;20960;-71
2022/05/07 00:43:15;;;;;;;15.72;3.80;;;;;;;11.16;41.38;100333.09;1808647;79;21536;-76
2022/05/07 00:45:42;;;;;;;7.20;3.62;;;;;;;11.18;41.46;100330.85;1810475;79;20977;-74
2022/05/07 00:53:41;;;;;;;6.70;3.30;;;;;;;11.18;41.37;100328.09;1755227;80;21090;-74
2022/05/07 00:56:08;;;;;;;6.97;3.40;;;;;;;11.12;41.39;100326.56;1786372;79;20933;-67
2022/05/07 00:58:41;;;;;;;7.08;3.98;;;;;;;11.05;41.78;100329.69;1785543;80;20913;-71
2022/05/07 01:01:20;;;;;;;10.28;3.45;;;;;;;11.03;41.73;100327.81;1781395;80;21040;-69
2022/05/07 01:04:10;;;;;;;8.73;3.90;;;;;;;11.01;41.96;100328.67;1781227;80;21011;-67
2022/05/07 01:06:50;;;;;;;5.28;3.08;;;;;;;11.00;42.20;100331.73;1784416;79;21493;-71
2022/05/07 01:09:17;;;;;;;7.58;3.35;;;;;;;10.98;42.23;100331.22;1786659;80;20984;-71
2022/05/07 01:11:52;;;;;;;8.03;3.87;;;;;;;10.96;42.30;100334.28;1784792;80;21507;-73
2022/05/07 01:14:27;;;;;;;;;;;;;;;10.95;42.34;100329.90;1757578;80;21000;-75
2022/05/07 01:17:09;;;;;;;10.82;4.25;;;;;;;10.90;42.57;100329.98;1781202;80;20152;-67
2022/05/07 01:19:52;;;;;;;15.03;7.60;;;;;;;10.87;42.53;100325.88;1791843;79;21009;-73
2022/05/07 01:22:31;;;;;;;25.52;9.68;;;;;;;10.88;42.70;100329.47;1814758;79;21013;-72
2022/05/07 01:24:58;;;;;;;27.73;12.18;;;;;;;10.86;42.46;100324.80;1819224;78;21453;-68
2022/05/07 01:27:25;;;;;;;36.00;15.03;;;;;;;10.82;42.66;100327.34;1818902;79;21001;-74
2022/05/07 01:29:51;;;;;;;22.60;11.08;;;;;;;10.84;42.85;100327.87;1808601;79;21016;-73
2022/05/07 01:32:18;;;;;;;27.02;10.35;;;;;;;10.87;42.77;100323.12;1810211;79;22181;-73
2022/05/07 01:34:51;;;;;;;26.57;10.40;;;;;;;10.89;42.73;100319.51;1787669;79;21026;-68
2022/05/07 01:37:44;;;;;;;24.30;12.05;;;;;;;10.88;42.97;100319.81;1736114;82;21000;-71
2022/05/07 01:40:12;;;;;;;44.58;16.48;;;;;;;10.88;42.85;100318.44;1755999;81;20976;-70
2022/05/07 01:42:39;;;;;;;33.05;14.43;;;;;;;10.90;42.66;100322.52;1752783;80;20923;-73
2022/05/07 01:45:10;;;;;;;27.58;12.88;;;;;;;10.91;42.66;100320.03;1774332;80;21053;-70
2022/05/07 01:50:26;;;;;;;25.00;8.03;;;;;;;10.83;42.73;100315.22;1774846;80;21049;-73
2022/05/07 01:52:58;;;;;;;14.00;5.85;;;;;;;10.76;43.09;100317.53;1765216;80;21000;-76
2022/05/07 01:55:26;;;;;;;13.80;5.03;;;;;;;10.75;43.09;100319.47;1761080;81;21512;-71
2022/05/07 01:57:55;;;;;;;14.05;4.42;;;;;;;10.78;43.15;100315.30;1759323;81;20972;-71
2022/05/07 02:00:22;;;;;;;12.45;4.22;;;;;;;10.81;43.05;100315.52;1761109;81;20876;-71
2022/05/07 02:02:51;;;;;;;10.75;4.15;;;;;;;10.83;42.93;100320.73;1726708;81;20951;-73
2022/05/07 02:05:20;;;;;;;11.22;4.75;;;;;;;10.80;42.81;100319.38;1758158;80;20967;-72
2022/05/07 02:08:09;;;;;;;6.40;3.37;;;;;;;10.77;43.08;100313.09;1753162;81;21008;-68
2022/05/07 02:10:54;;;;;;;6.03;3.60;;;;;;;10.75;43.00;100315.33;1749984;81;21353;-68
2022/05/07 02:13:30;;;;;;;7.03;3.90;;;;;;;10.77;43.23;100315.02;1752656;81;20987;-72
2022/05/07 02:16:06;;;;;;;10.95;4.37;;;;;;;10.78;43.33;100316.68;1721831;81;21390;-69
2022/05/07 02:18:33;;;;;;;14.68;4.22;;;;;;;10.73;43.24;100315.39;1759038;81;21524;-73
2022/05/07 02:21:01;;;;;;;10.82;4.00;;;;;;;10.68;43.46;100313.55;1758607;81;21054;-68
2022/05/07 02:23:58;;;;;;;13.50;4.10;;;;;;;10.66;43.47;100313.81;1757762;81;20877;-70
2022/05/07 02:26:26;;;;;;;10.88;3.83;;;;;;;10.63;43.52;100313.05;1755337;81;20921;-67
2022/05/07 02:28:53;;;;;;;8.08;4.47;;;;;;;10.62;43.65;100311.97;1745811;79;20905;-71
2022/05/07 02:31:19;;;;;;;14.38;5.72;;;;;;;10.62;43.74;100321.06;1728921;83;21548;-77
2022/05/07 02:33:54;;;;;;;13.53;6.83;;;;;;;10.66;43.86;100316.58;1728914;83;20982;-70
2022/05/07 02:36:29;;;;;;;19.02;8.33;;;;;;;10.68;43.75;100315.72;1722706;83;21522;-68
2022/05/07 02:39:01;;;;;;;20.02;8.40;;;;;;;10.70;43.67;100316.24;1729425;83;20934;-73
2022/05/07 02:44:41;;;;;;;24.77;9.00;;;;;;;10.64;43.86;100316.62;1725956;83;20989;-70
2022/05/07 02:47:21;;;;;;;22.32;8.58;;;;;;;10.63;44.04;100317.77;1726193;82;20961;-71
2022/05/07 02:49:49;;;;;;;18.40;8.08;;;;;;;10.61;43.90;100319.41;1739224;81;21046;-68
2022/05/07 02:52:16;;;;;;;19.50;7.60;;;;;;;10.63;43.89;100317.77;1730174;82;21035;-67
2022/05/07 02:54:43;;;;;;;14.38;6.28;;;;;;;10.65;43.82;100319.08;1735741;82;21062;-68
2022/05/07 02:57:10;;;;;;;15.03;6.00;;;;;;;10.64;43.92;100320.22;1741935;82;20884;-71
2022/05/07 02:59:41;;;;;;;13.68;6.58;;;;;;;10.63;43.83;100324.66;1741813;82;21567;-71
2022/05/07 03:02:10;;;;;;;16.15;6.92;;;;;;;10.60;44.10;100323.30;1741527;82;21145;-74
2022/05/07 03:04:40;;;;;;;18.25;6.83;;;;;;;10.62;44.02;100322.45;1741687;82;20964;-71
2022/05/07 03:07:09;;;;;;;18.45;7.33;;;;;;;10.57;44.22;100326.11;1719150;82;21512;-76
2022/05/07 03:09:36;;;;;;;14.10;6.72;;;;;;;10.57;44.37;100321.15;1741733;82;21532;-71
2022/05/07 03:12:04;;;;;;;12.55;6.47;;;;;;;10.59;44.41;100322.47;1741563;82;20992;-71
2022/05/07 03:14:32;;;;;;;15.53;6.35;;;;;;;10.61;44.38;100324.13;1741769;82;21125;-67
2022/05/07 03:16:59;;;;;;;13.95;6.70;;;;;;;10.62;44.33;100325.75;1737093;82;21036;-70
2022/05/07 03:19:26;;;;;;;14.53;6.12;;;;;;;10.62;44.28;100321.06;1741354;82;21552;-67
2022/05/07 03:21:53;;;;;;;16.75;7.10;;;;;;;10.60;44.12;100324.67;1741042;82;21310;-73
2022/05/07 03:24:29;;;;;;;12.15;6.37;;;;;;;10.58;44.22;100320.84;1734023;82;20920;-70
2022/05/07 03:27:11;;;;;;;14.07;6.50;;;;;;;10.58;44.30;100326.91;1706146;83;20983;-67
2022/05/07 03:29:41;;;;;;;16.48;8.03;;;;;;;10.58;44.33;100328.28;1745444;82;21084;-73
2022/05/07 03:32:22;;;;;;;13.35;5.78;;;;;;;10.58;44.19;100330.48;1807022;79;20930;-75
2022/05/07 03:34:56;;;;;;;12.23;5.70;;;;;;;10.51;44.50;100325.91;1809866;79;20970;-68
2022/05/07 03:37:26;;;;;;;12.15;5.78;;;;;;;10.46;44.87;100329.55;1809745;79;21021;-75
2022/05/07 03:40:11;;;;;;;17.30;6.00;;;;;;;10.41;45.09;100324.11;1805805;79;21053;-69
2022/05/07 03:42:47;;;;;;;12.35;5.33;;;;;;;10.39;45.37;100331.85;1807469;79;21014;-70
2022/05/07 03:45:27;;;;;;;19.95;5.83;;;;;;;10.37;45.74;100327.77;1805831;79;20949;-68
2022/05/07 03:48:04;;;;;;;12.53;6.25;;;;;;;10.35;45.81;100328.08;1803134;79;20954;-68
2022/05/07 03:50:38;;;;;;;13.78;5.92;;;;;;;10.39;45.80;100332.44;1792209;80;20997;-70
2022/05/07 03:55:53;;;;;;;17.45;5.50;;;;;;;10.49;45.90;100332.86;1793916;79;20865;-74
2022/05/07 03:58:22;;;;;;;10.00;4.95;;;;;;;10.53;45.76;100329.20;1792963;79;21009;-70
2022/05/07 04:01:08;;;;;;;15.05;5.25;;;;;;;10.59;45.50;100333.49;1790865;80;20909;-71
2022/05/07 04:06:28;;;;;;;13.53;5.78;;;;;;;10.70;45.29;100333.33;1776818;80;21098;-69
2022/05/07 04:09:20;;;;;;;11.12;4.72;;;;;;;10.74;45.27;100339.89;1790717;80;21012;-67
2022/05/07 04:11:58;;;;;;;12.88;4.60;;;;;;;10.79;45.30;100336.22;1785697;80;20874;-69
2022/05/07 04:14:33;;;;;;;13.13;4.78;;;;;;;10.84;45.48;100347.16;1790290;80;21001;-70
2022/05/07 04:17:01;;;;;;;10.60;4.97;;;;;;;10.88;45.50;100348.21;1791397;79;20973;-68
2022/05/07 04:19:28;;;;;;;15.68;4.53;;;;;;;10.94;45.32;100348.92;1793983;80;21142;-75
2022/05/07 04:21:58;;;;;;;10.38;4.72;;;;;;;11.01;45.21;100342.47;1768409;80;21013;-70
2022/05/07 04:24:36;;;;;;;8.40;4.05;;;;;;;11.08;45.06;100344.83;1770958;79;20966;-74
2022/05/07 04:27:04;;;;;;;8.55;4.45;;;;;;;11.13;45.10;100345.28;1779758;80;21473;-68
2022/05/07 04:29:46;;;;;;;9.58;4.45;;;;;;;11.19;44.99;100346.27;1761204;80;20967;-73
2022/05/07 04:32:16;;;;;;;10.78;5.05;;;;;;;11.23;44.79;100348.41;1761135;81;21030;-75
2022/05/07 04:34:47;;;;;;;11.63;5.12;;;;;;;11.31;44.78;100340.84;1763049;81;20932;-74
2022/05/07 04:37:29;;;;;;;14.28;5.20;;;;;;;11.37;44.92;100339.61;1763765;81;20936;-74
2022/05/07 04:39:57;;;;;;;10.40;4.83;;;;;;;11.39;44.60;100338.75;1760062;81;20948;-72
2022/05/07 04:42:26;;;;;;;8.25;5.08;;;;;;;11.44;44.80;100340.03;1763887;81;21015;-74
2022/05/07 04:44:54;;;;;;;16.50;4.95;;;;;;;11.48;44.75;100339.41;1762644;81;21788;-68
2022/05/07 04:47:22;;;;;;;10.93;4.67;;;;;;;11.54;44.58;100340.94;1760652;81;20933;-67
2022/05/07 04:49:50;;;;;;;8.60;4.83;;;;;;;11.60;44.71;100334.18;1763879;81;21036;-74
2022/05/07 04:52:21;;;;;;;6.37;3.95;;;;;;;11.66;44.75;100337.11;1742237;81;21441;-68
2022/05/07 04:54:50;;;;;;;14.53;4.55;;;;;;;11.75;44.89;100337.77;1763953;81;20972;-70
2022/05/07 04:57:17;;;;;;;13.35;5.03;;;;;;;11.78;44.61;100334.38;1764179;81;21116;-69
2022/05/07 04:59:46;;;;;;;9.80;5.20;;;;;;;11.81;44.60;100342.88;1763500;81;20998;-71
2022/05/07 05:02:14;;;;;;;11.83;5.33;;;;;;;11.89;44.38;100341.31;1755871;80;21044;-70
2022/05/07 05:04:43;;;;;;;10.93;4.60;;;;;;;11.93;44.18;100338.20;1781348;80;21017;-74
2022/05/07 05:07:13;;;;;;;10.65;5.10;;;;;;;12.01;44.22;100341.37;1779241;80;21001;-76
2022/05/07 05:09:42;;;;;;;10.55;4.80;;;;;;;12.06;44.47;100339.84;1775130;79;21020;-70
2022/05/07 05:12:15;;;;;;;8.25;4.20;;;;;;;12.10;44.56;100342.28;1767485;79;21092;-69
2022/05/07 05:17:33;;;;;;;18.65;4.78;;;;;;;12.20;44.42;100347.34;1772389;79;21017;-70
2022/05/07 05:20:03;;;;;;;10.78;5.28;;;;;;;12.26;44.29;100348.30;1786259;79;21346;-69
2022/05/07 05:22:41;;;;;;;11.43;4.45;;;;;;;12.32;43.94;100346.21;1777544;80;21477;-68
2022/05/07 05:25:10;;;;;;;9.45;4.67;;;;;;;12.40;44.11;100345.47;1784977;79;20973;-74
2022/05/07 05:27:39;;;;;;;10.70;4.72;;;;;;;12.49;43.84;100346.09;1775769;79;21089;-68
2022/05/07 05:30:09;;;;;;;10.30;4.92;;;;;;;12.55;44.18;100350.39;1785727;79;20960;-75
2022/05/07 05:32:42;;;;;;;8.25;4.37;;;;;;;12.59;43.61;100344.48;1781466;79;21025;-68
2022/05/07 05:35:14;;;;;;;10.18;5.05;;;;;;;12.63;43.59;100346.05;1770905;80;21067;-73
2022/05/07 05:37:50;;;;;;;9.90;4.60;;;;;;;12.65;43.56;100354.30;1775880;79;21584;-74
2022/05/07 05:40:22;;;;;;;9.33;5.42;;;;;;;12.65;44.38;100352.09;1789402;79;21052;-71
2022/05/07 05:42:54;;;;;;;14.20;4.97;;;;;;;12.64;43.95;100354.03;1784651;79;20981;-74
2022/05/07 05:45:22;;;;;;;12.60;4.60;;;;;;;12.70;43.97;100353.91;1746887;80;21433;-74
2022/05/07 05:47:49;;;;;;;13.58;4.33;;;;;;;12.78;44.17;100358.67;1751208;81;21218;-68
2022/05/07 05:50:16;;;;;;;7.58;4.35;;;;;;;12.87;43.94;100357.36;1763996;81;20925;-73
2022/05/07 05:52:46;;;;;;;11.57;5.28;;;;;;;12.96;44.01;100354.09;1729906;82;20956;-72
2022/05/07 05:55:13;;;;;;;11.00;4.87;;;;;;;13.07;43.83;100361.55;1737058;82;20937;-71
2022/05/07 05:57:41;;;;;;;8.35;3.90;;;;;;;13.18;43.89;100366.81;1748256;81;21039;-73
2022/05/07 06:02:53;;;;;;;12.23;4.75;;;;;;;13.29;43.50;100365.98;1746151;80;20999;-69
2022/05/07 06:05:26;;;;;;;15.35;5.28;;;;;;;13.38;43.46;100366.27;1745228;81;21050;-73
2022/05/07 06:07:56;;;;;;;15.00;4.80;;;;;;;13.50;43.52;100371.77;1757372;80;21075;-72
2022/05/07 06:10:33;;;;;;;13.60;5.40;;;;;;;13.63;43.54;100365.89;1748083;81;21057;-67
2022/05/07 06:13:02;;;;;;;11.43;4.65;;;;;;;13.78;43.26;100366.05;1758415;79;21000;-71
2022/05/07 06:15:38;;;;;;;8.45;4.85;;;;;;;13.92;42.73;100360.95;1760669;79;21024;-69
2022/05/07 06:18:05;;;;;;;11.70;5.58;;;;;;;14.06;43.35;100364.39;1775771;79;21527;-71
2022/05/07 06:20:51;;;;;;;14.03;5.55;;;;;;;14.19;42.80;100361.81;1758046;80;21310;-73
2022/05/07 06:23:22;;;;;;;14.30;5.97;;;;;;;14.32;42.56;100366.39;1773252;79;20922;-73
2022/05/07 06:28:43;;;;;;;13.62;5.62;;;;;;;14.54;41.49;100360.43;1779948;78;20819;-75
2022/05/07 06:31:10;;;;;;;12.23;6.10;;;;;;;14.66;41.79;100362.55;1768312;80;20995;-74
2022/05/07 06:33:41;;;;;;;11.03;5.28;;;;;;;14.76;41.33;100360.56;1764815;79;21056;-70
2022/05/07 06:36:09;;;;;;;13.40;4.95;;;;;;;14.84;41.53;100366.14;1778630;79;21493;-72
2022/05/07 06:38:38;;;;;;;13.13;6.40;;;;;;;14.91;41.30;100361.48;1786439;79;20985;-70
2022/05/07 06:41:06;;;;;;;14.00;5.17;;;;;;;15.03;41.22;100364.16;1779309;79;20984;-69
2022/05/07 06:43:37;;;;;;;9.55;5.58;;;;;;;15.12;41.31;100366.89;1787558;79;21019;-74
2022/05/07 06:46:14;;;;;;;16.17;5.37;;;;;;;15.23;41.14;100362.64;1774884;79;20970;-73
2022/05/07 06:48:45;;;;;;;18.60;7.03;;;;;;;15.34;40.65;100363.08;1776273;79;20972;-68
2022/05/07 06:51:13;;;;;;;12.60;5.62;;;;;;;15.44;40.56;100360.50;1776705;79;21368;-66
2022/05/07 06:53:46;;;;;;;13.75;6.12;;;;;;;15.56;40.97;100356.45;1779216;79;20989;-74
2022/05/07 06:56:13;;;;;;;13.90;5.53;;;;;;;15.63;40.56;100355.94;1775788;79;21366;-73
2022/05/07 06:58:41;;;;;;;13.60;5.97;;;;;;;15.73;40.08;100358.11;1784494;79;20937;-68
2022/05/07 07:01:24;;;;;;;17.12;5.65;;;;;;;15.86;39.64;100357.62;1776166;79;20912;-71
2022/05/07 07:04:08;;;;;;;16.80;6.50;;;;;;;15.97;39.26;100351.11;1768462;79;21152;-74
2022/05/07 07:06:40;;;;;;;9.73;5.65;;;;;;;16.09;39.16;100349.81;1784176;79;21091;-66
2022/05/07 07:09:18;;;;;;;;;;;;;;;16.25;39.13;100353.38;1785826;79;21103;-70
2022/05/07 07:11:53;;;;;;;13.32;5.33;;;;;;;16.37;39.00;100354.85;1775553;80;20235;-78
2022/05/07 07:14:22;;;;;;;16.45;6.22;;;;;;;16.48;38.20;100357.23;1775856;80;20973;-77
2022/05/07 07:17:07;;;;;;;15.38;5.83;;;;;;;16.60;38.18;100359.25;1781612;79;21120;-71
2022/05/07 07:19:40;;;;;;;12.85;6.05;;;;;;;16.72;38.02;100366.84;1784446;79;21033;-69
2022/05/07 07:22:08;;;;;;;13.83;6.08;;;;;;;16.82;37.49;100358.03;1783719;79;21052;-73
2022/05/07 07:24:47;;;;;;;16.07;5.80;;;;;;;16.90;37.43;100358.55;1780187;79;22425;-69
2022/05/07 07:27:17;;;;;;;13.08;6.80;;;;;;;17.00;37.58;100357.30;1785341;79;21037;-70
2022/05/07 07:29:47;;;;;;;10.48;5.75;;;;;;;17.15;37.43;100361.99;1757317;79;22073;-74
2022/05/07 07:32:16;;;;;;;16.73;7.05;;;;;;;17.22;36.55;100351.68;1784638;79;21110;-77
2022/05/07 07:34:44;;;;;;;12.73;5.83;;;;;;;17.31;36.85;100359.94;1779605;79;21005;-74
2022/05/07 07:37:15;;;;;;;9.63;5.83;;;;;;;17.38;36.77;100361.58;1768287;80;21485;-73
2022/05/07 07:39:42;;;;;;;16.85;6.80;;;;;;;17.48;36.49;100358.34;1763733;80;21478;-70
2022/05/07 07:42:10;;;;;;;11.70;5.78;;;;;;;17.58;35.86;100357.64;1774091;79;21094;-72
2022/05/07 07:44:37;;;;;;;13.28;5.78;;;;;;;17.62;35.23;100364.95;1767530;79;21069;-71
2022/05/07 07:49:52;;;;;;;14.63;6.60;;;;;;;17.59;35.08;100362.03;1782477;79;20933;-73
2022/05/07 07:52:21;;;;;;;12.23;6.25;;;;;;;17.61;34.79;100361.12;1745525;80;20937;-71
2022/05/07 07:54:51;;;;;;;17.80;5.70;;;;;;;17.66;34.06;100360.89;1779840;79;21861;-73
2022/05/07 07:57:20;;;;;;;14.13;5.70;;;;;;;17.70;34.23;100363.22;1752818;79;21055;-74
2022/05/07 08:00:09;;;;;;;13.15;5.87;;;;;;;17.76;34.83;100359.60;1779101;79;20969;-71
2022/05/07 08:03:20;;;;;;;14.57;5.60;;;;;;;17.85;34.43;100356.13;1744440;80;20993;-71
2022/05/07 08:06:02;;;;;;;10.35;5.85;;;;;;;17.99;34.33;100361.34;1781986;79;21494;-69
2022/05/07 08:14:06;;;;;;;18.12;6.17;;;;;;;18.36;32.33;100352.69;1769803;79;21028;-69
2022/05/07 08:16:34;;;;;;;14.63;5.90;;;;;;;18.41;31.04;100348.85;1786571;79;20999;-68
2022/05/07 08:19:04;;;;;;;11.48;6.17;;;;;;;18.40;30.79;100348.61;1745237;80;21043;-68
2022/05/07 08:21:31;;;;;;;12.07;5.70;;;;;;;18.37;30.84;100344.56;1777807;79;21282;-69
2022/05/07 08:23:58;;;;;;;10.88;6.08;;;;;;;18.37;31.35;100341.17;1778631;79;21453;-70
2022/05/07 08:26:28;;;;;;;9.68;5.62;;;;;;;18.39;31.46;100343.60;1771178;79;21465;-76
2022/05/07 08:29:05;;;;;;;11.83;5.00;;;;;;;18.43;31.89;100337.55;1785384;79;20974;-75
2022/05/07 08:31:35;;;;;;;12.05;5.60;;;;;;;18.54;32.08;100339.84;1782539;79;20920;-72
2022/05/07 08:34:04;;;;;;;11.88;5.08;;;;;;;18.60;32.04;100337.02;1766083;80;21228;-70
2022/05/07 08:36:39;;;;;;;11.08;5.22;;;;;;;18.68;32.28;100336.05;1779263;80;21016;-76
2022/05/07 08:39:27;;;;;;;12.00;4.97;;;;;;;18.78;31.90;100336.72;1780614;79;20996;-78
2022/05/07 08:42:23;;;;;;;13.95;4.40;;;;;;;18.89;31.89;100332.23;1744062;80;21568;-73
2022/05/07 08:44:53;;;;;;;8.38;4.83;;;;;;;18.97;30.02;100338.23;1779825;78;20997;-72
2022/05/07 08:47:23;;;;;;;14.07;5.20;;;;;;;18.97;29.66;100338.80;1781300;79;22192;-73
2022/05/07 08:49:50;;;;;;;9.93;5.70;;;;;;;18.96;29.26;100339.41;1743519;81;20942;-76
2022/05/07 08:52:22;;;;;;;11.15;4.90;;;;;;;18.95;29.66;100333.58;1745982;80;21047;-70
2022/05/07 08:54:50;;;;;;;13.20;6.28;;;;;;;18.92;29.55;100330.72;1723050;81;21435;-71
2022/05/07 08:57:22;;;;;;;11.83;5.67;;;;;;;18.91;29.64;100329.91;1744350;80;20937;-72
2022/05/07 08:59:52;;;;;;;14.60;6.08;;;;;;;18.93;29.76;100328.97;1746951;80;21209;-72
2022/05/07 09:02:35;;;;;;;12.70;5.10;;;;;;;19.00;30.05;100321.94;1773738;79;21202;-75
2022/05/07 09:05:05;;;;;;;10.43;5.78;;;;;;;19.09;30.40;100319.19;1755722;80;28361;-74
2022/05/07 09:07:33;;;;;;;11.18;4.90;;;;;;;19.26;30.60;100320.64;1750107;80;21071;-73
2022/05/07 09:10:03;;;;;;;11.70;4.58;;;;;;;19.40;30.28;100322.38;1774397;79;21556;-74
2022/05/07 09:12:30;;;;;;;8.53;4.50;;;;;;;19.50;29.63;100323.02;1777696;80;21697;-72
2022/05/07 09:15:01;;;;;;;7.92;4.85;;;;;;;19.52;29.12;100317.28;1743530;82;21618;-76
2022/05/07 09:17:28;;;;;;;12.05;5.05;;;;;;;19.55;28.83;100318.55;1737001;82;20973;-75
2022/05/07 09:19:55;;;;;;;20.70;5.03;;;;;;;19.57;28.68;100314.78;1737009;82;21012;-73
2022/05/07 09:22:25;;;;;;;9.83;4.12;;;;;;;19.57;28.61;100318.41;1742680;81;21016;-68
2022/05/07 09:24:55;;;;;;;7.45;4.37;;;;;;;19.61;28.93;100325.48;1731142;82;21112;-71
2022/05/07 09:27:31;;;;;;;8.05;4.37;;;;;;;19.70;28.56;100314.90;1760425;80;21506;-74
2022/05/07 09:30:03;;;;;;;9.50;4.37;;;;;;;19.79;28.07;100313.31;1776876;79;21020;-69
2022/05/07 09:32:36;;;;;;;12.18;4.17;;;;;;;19.87;28.35;100314.30;1780804;78;21035;-74
2022/05/07 09:38:01;;;;;;;12.60;4.60;;;;;;;19.98;27.87;100320.11;1784714;79;21236;-70
2022/05/07 09:40:37;;;;;;;20.43;4.97;;;;;;;19.99;28.95;100302.18;1750951;81;21021;-67
2022/05/07 09:43:16;;;;;;;8.43;4.62;;;;;;;20.09;29.59;100307.81;1767023;79;20993;-73
2022/05/07 09:45:57;;;;;;;8.87;4.37;;;;;;;20.18;28.75;100305.59;1775874;79;20940;-74
2022/05/07 09:48:25;;;;;;;9.98;5.15;;;;;;;20.29;27.65;100305.83;1766746;80;20925;-78
2022/05/07 09:50:51;;;;;;;7.60;4.80;;;;;;;20.35;27.59;100302.73;1769340;79;21100;-72
2022/05/07 10:00:16;;;;;;;11.63;4.50;;;;;;;20.38;26.81;100288.00;1775685;79;21063;-72
2022/05/07 10:03:23;;;;;;;8.60;4.53;;;;;;;20.27;27.08;100289.99;1763311;80;21001;-74
2022/05/07 10:06:33;;;;;;;17.65;5.28;;;;;;;20.34;27.72;100282.91;1722648;82;20941;-75
2022/05/07 10:09:27;;;;;;;9.43;4.37;;;;;;;20.34;26.81;100290.73;1700614;82;20943;-70
2022/05/07 10:11:59;;;;;;;10.38;4.85;;;;;;;20.35;26.86;100281.75;1762917;80;20996;-72
2022/05/07 10:14:31;;;;;;;57.70;27.30;;;;;;;20.34;26.80;100283.73;1743791;81;20969;-69
2022/05/07 10:17:03;;;;;;;25.77;8.95;;;;;;;20.37;26.85;100279.41;1742860;82;20981;-69
2022/05/07 10:19:40;;;;;;;13.62;5.47;;;;;;;20.42;27.68;100274.91;1735611;82;21028;-76
2022/05/07 10:22:27;;;;;;;13.60;5.80;;;;;;;20.48;28.06;100275.40;1734699;82;21429;-76
2022/05/07 10:25:12;;;;;;;13.93;4.42;;;;;;;20.47;27.73;100274.58;1741349;81;21532;-73
2022/05/07 10:27:44;;;;;;;8.33;4.28;;;;;;;20.53;27.56;100274.52;1743325;81;20996;-77
2022/05/07 10:30:16;;;;;;;6.45;4.33;;;;;;;20.63;27.47;100264.70;1741901;82;20978;-74
2022/05/07 10:33:03;;;;;;;10.10;4.58;;;;;;;20.72;27.41;100268.66;1716229;83;21142;-76
2022/05/07 10:35:53;;;;;;;9.23;5.10;;;;;;;20.69;26.45;100255.42;1716298;83;20967;-78
2022/05/07 10:38:31;;;;;;;11.03;3.83;;;;;;;20.55;26.49;100262.95;1734782;82;20935;-77
2022/05/07 10:41:04;;;;;;;18.62;4.92;;;;;;;20.37;26.47;100264.80;1734583;81;20856;-69
2022/05/07 10:43:39;;;;;;;12.00;4.80;;;;;;;20.27;26.17;100267.61;1715335;81;20924;-69
2022/05/07 10:46:16;;;;;;;13.75;5.00;;;;;;;20.10;26.23;100259.07;1742104;81;20928;-73
2022/05/07 10:48:53;;;;;;;12.95;4.40;;;;;;;19.96;26.48;100258.14;1711904;83;21040;-73
2022/05/07 10:51:26;;;;;;;9.03;4.65;;;;;;;19.88;26.92;100258.59;1710931;83;20960;-77
2022/05/07 10:53:59;;;;;;;7.60;4.70;;;;;;;19.88;26.94;100253.00;1715597;82;20967;-77
2022/05/07 10:56:27;;;;;;;8.80;4.55;;;;;;;19.89;27.36;100252.42;1729536;82;21544;-72
2022/05/07 10:59:03;;;;;;;9.73;4.33;;;;;;;20.00;27.65;100249.26;1707057;83;21009;-78
2022/05/07 11:01:45;;;;;;;10.38;4.92;;;;;;;20.14;27.50;100244.59;1706575;83;21008;-76
2022/05/07 11:04:13;;;;;;;8.90;5.00;;;;;;;20.29;27.02;100251.86;1710536;82;20979;-71
2022/05/07 11:06:51;;;;;;;9.63;4.78;;;;;;;20.28;26.87;100248.23;1734896;82;21077;-76
2022/05/07 11:09:26;;;;;;;8.68;4.78;;;;;;;20.22;26.92;100235.73;1739592;80;20926;-76
2022/05/07 11:11:59;;;;;;;9.78;4.60;;;;;;;20.16;26.48;100237.22;1772976;79;21127;-76
2022/05/07 11:14:32;;;;;;;11.23;4.20;;;;;;;20.06;26.52;100239.42;1799436;79;20938;-73
2022/05/07 11:17:35;;;;;;;12.47;4.85;;;;;;;19.93;26.49;100233.14;1767884;79;20877;-75
2022/05/07 11:20:38;;;;;;;9.75;4.62;;;;;;;19.88;27.42;100233.43;1796426;79;20905;-73
2022/05/07 11:23:16;;;;;;;7.87;4.60;;;;;;;19.86;27.32;100236.39;1794387;79;20988;-79
2022/05/07 11:25:45;;;;;;;7.97;4.12;;;;;;;19.87;27.34;100229.03;1799864;79;21816;-75
2022/05/07 11:28:48;;;;;;;10.35;4.42;;;;;;;19.90;27.23;100226.89;1793672;79;20964;-70
2022/05/07 11:31:34;;;;;;;13.58;4.85;;;;;;;19.91;26.24;100226.28;1786541;79;20981;-70
2022/05/07 11:34:25;;;;;;;8.93;4.25;;;;;;;19.86;26.87;100220.40;1772781;80;20938;-72
2022/05/07 11:36:51;;;;;;;17.00;4.55;;;;;;;19.88;27.43;100209.66;1781018;80;20989;-71
2022/05/07 11:39:19;;;;;;;11.03;4.47;;;;;;;19.97;27.96;100205.26;1783717;79;21082;-75
2022/05/07 11:41:58;;;;;;;12.90;5.50;;;;;;;20.06;27.38;100203.67;1783214;79;21022;-73
2022/05/07 11:47:23;;;;;;;9.30;4.55;;;;;;;20.29;27.27;100205.69;1804844;78;21411;-72
2022/05/07 11:50:08;;;;;;;13.13;4.55;;;;;;;20.31;26.80;100199.14;1810199;79;20996;-78
2022/05/07 11:52:38;;;;;;;10.75;4.47;;;;;;;20.29;26.26;100202.31;1789389;79;21073;-77
2022/05/07 11:55:05;;;;;;;8.43;4.72;;;;;;;20.19;26.35;100196.73;1804996;79;21029;-76
2022/05/07 11:57:34;;;;;;;9.38;4.92;;;;;;;20.08;26.18;100198.49;1805180;79;20961;-77
2022/05/07 12:00:17;;;;;;;15.72;5.58;;;;;;;19.99;26.47;100195.92;1803827;79;20962;-75
2022/05/07 12:02:59;;;;;;;12.50;5.30;;;;;;;19.90;27.03;100196.13;1803562;79;20989;-77
2022/05/07 12:05:48;;;;;;;14.50;4.08;;;;;;;19.80;27.02;100192.52;1796660;79;20971;-71
2022/05/07 12:08:20;;;;;;;11.73;5.00;;;;;;;19.69;27.03;100188.91;1804056;79;20902;-72
2022/05/07 12:10:52;;;;;;;12.47;5.53;;;;;;;19.59;27.70;100186.69;1804419;79;21002;-71
2022/05/07 12:13:21;;;;;;;16.60;5.95;;;;;;;19.49;27.46;100180.27;1803230;79;21522;-76
2022/05/07 12:19:07;;;;;;;8.65;4.70;;;;;;;19.29;28.11;100169.89;1800992;79;21018;-70
2022/05/07 12:29:55;;;;;;;8.53;4.83;;;;;;;19.12;28.24;100168.89;1706491;83;21092;-78
2022/05/07 12:32:29;;;;;;;10.65;5.95;;;;;;;19.15;29.58;100162.56;1740214;81;39857;-77
2022/05/07 12:35:15;;;;;;;11.30;6.25;;;;;;;19.21;29.24;100166.69;1707363;83;21433;-72
2022/05/07 12:37:42;;;;;;;9.38;4.83;;;;;;;19.25;29.18;100163.98;1762194;81;21016;-79
2022/05/07 12:40:23;;;;;;;11.60;5.75;;;;;;;19.27;28.67;100161.64;1758889;81;21040;-76
2022/05/07 12:43:04;;;;;;;12.95;5.33;;;;;;;19.26;28.84;100162.83;1759517;81;20877;-76
2022/05/07 12:46:06;;;;;;;12.63;4.58;;;;;;;19.31;28.73;100163.94;1761847;81;20992;-75
2022/05/07 12:48:38;;;;;;;8.28;3.65;;;;;;;19.37;28.95;100161.08;1762847;81;20933;-73